createdAt,value
2019-03-06T00:01:17.778Z,62.38
2019-03-06T00:07:23.993Z,62.36
2019-03-06T00:13:30.275Z,62.34
2019-03-06T00:19:36.134Z,62.22
2019-03-06T00:25:42.037Z,62.31
2019-03-06T00:31:48.064Z,62.95
2019-03-06T00:37:53.811Z,63.56
2019-03-06T00:43:59.610Z,63.94
2019-03-06T00:50:05.930Z,64.13
2019-03-06T00:56:12.068Z,64.37
2019-03-06T01:02:18.160Z,64.91
2019-03-06T01:08:24.198Z,65.48
2019-03-06T01:14:29.960Z,65.82
2019-03-06T01:20:35.806Z,66.24
2019-03-06T01:26:42.272Z,66.59
2019-03-06T01:32:50.529Z,67.24
2019-03-06T01:39:21.268Z,67.91
2019-03-06T01:45:27.212Z,68.08
2019-03-06T01:51:33.183Z,68.45
2019-03-06T01:57:39.307Z,68.59
2019-03-06T02:03:45.159Z,68.71
2019-03-06T02:09:50.875Z,68.97
2019-03-06T02:15:56.718Z,69.00
2019-03-06T02:22:02.458Z,69.11
2019-03-06T02:28:08.978Z,69.33
2019-03-06T02:34:14.728Z,69.20
2019-03-06T02:40:20.413Z,69.44
2019-03-06T02:46:26.221Z,69.28
2019-03-06T02:52:32.170Z,69.18
2019-03-06T02:59:01.356Z,69.27
2019-03-06T03:05:17.910Z,69.23
2019-03-06T03:11:23.908Z,69.19
2019-03-06T03:17:29.717Z,69.40
2019-03-06T03:23:35.549Z,69.42
2019-03-06T03:29:41.392Z,69.45
2019-03-06T03:35:47.160Z,69.56
2019-03-06T03:41:52.979Z,69.47
2019-03-06T03:47:58.760Z,69.42
2019-03-06T03:54:04.704Z,69.20
2019-03-06T04:00:13.227Z,69.23
2019-03-06T04:06:18.965Z,69.14
2019-03-06T04:12:24.651Z,69.09
2019-03-06T04:18:30.403Z,69.03
2019-03-06T04:24:36.423Z,68.93
2019-03-06T04:30:42.136Z,68.94
2019-03-06T04:36:48.196Z,68.83
2019-03-06T04:42:54.184Z,68.63
2019-03-06T04:48:59.873Z,68.55
2019-03-06T04:55:06.433Z,68.66
2019-03-06T05:01:12.335Z,69.00
2019-03-06T05:07:18.141Z,69.05
2019-03-06T05:13:25.371Z,68.99
2019-03-06T05:19:31.532Z,69.14
2019-03-06T05:25:37.492Z,69.09
2019-03-06T05:32:38.718Z,69.05
2019-03-06T05:39:02.270Z,68.87
2019-03-06T05:45:08.551Z,68.83
2019-03-06T05:51:14.387Z,68.89
2019-03-06T05:57:20.120Z,69.02
2019-03-06T06:03:25.970Z,69.04
2019-03-06T06:09:31.787Z,68.99
2019-03-06T06:15:37.967Z,68.71
2019-03-06T06:21:52.823Z,68.60
2019-03-06T06:27:58.923Z,68.77
2019-03-06T06:34:04.793Z,68.99
2019-03-06T06:40:10.926Z,67.95
2019-03-06T06:46:16.650Z,67.01
2019-03-06T06:53:27.550Z,66.59
2019-03-06T07:00:29.858Z,66.29
2019-03-06T07:06:57.795Z,66.04
2019-03-06T07:13:16.179Z,65.65
2019-03-06T07:19:39.998Z,65.42
2019-03-06T07:26:13.863Z,65.23
2019-03-06T07:32:35.423Z,64.80
2019-03-06T07:38:41.629Z,64.17
2019-03-06T07:46:06.940Z,63.79
2019-03-06T07:52:24.697Z,63.35
2019-03-06T07:58:54.306Z,62.65
2019-03-06T08:05:00.351Z,62.07
2019-03-06T08:11:09.934Z,61.37
2019-03-06T08:17:34.511Z,60.99
2019-03-06T08:23:59.956Z,60.37
2019-03-06T08:30:09.448Z,59.67
2019-03-06T08:36:15.170Z,58.42
2019-03-06T08:42:20.995Z,57.15
2019-03-06T08:48:40.302Z,55.86
2019-03-06T08:54:52.035Z,55.07
2019-03-06T09:01:24.891Z,55.11
2019-03-06T09:07:59.012Z,53.36
2019-03-06T09:14:36.101Z,52.43
2019-03-06T09:20:50.591Z,52.47
2019-03-06T09:27:30.713Z,52.14
2019-03-06T09:34:01.736Z,51.88
2019-03-06T09:40:33.926Z,51.08
2019-03-06T09:47:04.300Z,50.92
2019-03-06T09:53:41.334Z,50.84
2019-03-06T10:00:11.867Z,50.04
2019-03-06T10:06:27.833Z,49.21
2019-03-06T10:13:10.910Z,48.96
2019-03-06T10:19:43.037Z,48.50
2019-03-06T10:25:49.174Z,48.32
2019-03-06T10:31:54.869Z,48.34
2019-03-06T10:38:00.972Z,47.73
2019-03-06T10:44:29.562Z,47.27
2019-03-06T10:50:33.603Z,47.01
2019-03-06T10:56:39.616Z,46.13
2019-03-06T11:02:45.525Z,45.84
2019-03-06T11:08:51.440Z,45.67
2019-03-06T11:14:57.613Z,44.78
2019-03-06T11:21:03.655Z,44.31
2019-03-06T11:27:09.854Z,44.16
2019-03-06T11:33:16.396Z,43.29
2019-03-06T11:39:23.882Z,43.65
2019-03-06T11:45:29.970Z,43.50
2019-03-06T11:51:36.179Z,43.24
2019-03-06T11:57:42.656Z,42.91
2019-03-06T12:03:49.362Z,42.43
2019-03-06T12:09:55.051Z,42.50
2019-03-06T12:16:00.827Z,42.17
2019-03-06T12:22:06.927Z,41.91
2019-03-06T12:28:14.805Z,41.75
2019-03-06T12:34:20.692Z,41.08
2019-03-06T12:40:26.845Z,41.35
2019-03-06T12:46:33.556Z,41.13
2019-03-06T12:52:39.338Z,41.52
2019-03-06T12:58:45.174Z,41.88
2019-03-06T13:04:50.988Z,42.68
2019-03-06T13:10:58.506Z,42.94
2019-03-06T13:17:04.262Z,43.30
2019-03-06T13:23:10.070Z,44.25
2019-03-06T13:29:15.820Z,44.99
2019-03-06T13:35:21.948Z,44.78
2019-03-06T13:41:27.749Z,44.87
2019-03-06T13:47:33.539Z,44.52
2019-03-06T13:53:39.408Z,44.16
2019-03-06T13:59:45.475Z,43.99
2019-03-06T14:05:51.220Z,44.09
2019-03-06T14:11:57.076Z,44.05
2019-03-06T14:18:02.952Z,44.02
2019-03-06T14:24:08.832Z,45.82
2019-03-06T14:30:15.903Z,47.95
2019-03-06T14:36:22.434Z,49.01
2019-03-06T14:42:28.401Z,50.29
2019-03-06T14:48:34.389Z,51.69
2019-03-06T14:54:40.283Z,53.90
2019-03-06T15:00:46.654Z,55.03
2019-03-06T15:06:52.354Z,55.33
2019-03-06T15:12:58.214Z,55.76
2019-03-06T15:19:05.649Z,54.94
2019-03-06T15:25:15.602Z,55.84
2019-03-06T15:31:21.553Z,55.49
2019-03-06T15:37:28.562Z,54.77
2019-03-06T15:43:34.997Z,55.30
2019-03-06T15:49:40.733Z,54.63
2019-03-06T15:55:46.772Z,54.96
2019-03-06T16:01:53.111Z,54.59
2019-03-06T16:07:59.584Z,55.11
2019-03-06T16:14:05.988Z,55.07
2019-03-06T16:20:17.344Z,54.93
2019-03-06T16:26:23.732Z,54.85
2019-03-06T16:32:29.926Z,55.49
2019-03-06T16:38:35.716Z,56.05
2019-03-06T16:44:42.196Z,57.44
2019-03-06T16:50:47.966Z,57.19
2019-03-06T16:56:54.082Z,57.49
2019-03-06T17:03:00.798Z,57.79
2019-03-06T17:09:25.978Z,57.21
2019-03-06T17:15:32.757Z,56.54
2019-03-06T17:21:38.979Z,56.70
2019-03-06T17:27:44.848Z,57.09
2019-03-06T17:33:50.729Z,58.44
2019-03-06T17:39:56.690Z,59.10
2019-03-06T17:46:02.916Z,59.99
2019-03-06T17:52:08.926Z,60.69
2019-03-06T17:58:14.787Z,61.78
2019-03-06T18:04:22.121Z,62.29
2019-03-06T18:10:29.931Z,62.39
2019-03-06T18:16:37.212Z,62.51
2019-03-06T18:22:43.720Z,62.59
2019-03-06T18:28:49.656Z,62.64
2019-03-06T18:34:55.869Z,62.79
2019-03-06T18:41:01.782Z,63.05
2019-03-06T18:47:07.525Z,63.26
2019-03-06T18:53:13.329Z,63.71
2019-03-06T18:59:19.425Z,63.88
2019-03-06T19:05:44.169Z,63.95
2019-03-06T19:11:50.534Z,63.95
2019-03-06T19:17:56.424Z,64.06
2019-03-06T19:24:02.291Z,64.01
2019-03-06T19:30:29.853Z,63.95
2019-03-06T19:36:35.622Z,63.51
2019-03-06T19:42:41.862Z,63.43
2019-03-06T19:48:47.649Z,63.60
2019-03-06T19:54:53.541Z,63.32
2019-03-06T20:00:59.464Z,63.31
2019-03-06T20:07:06.074Z,63.58
2019-03-06T20:13:12.008Z,63.62
2019-03-06T20:19:20.621Z,63.24
2019-03-06T20:25:27.110Z,63.59
2019-03-06T20:31:33.198Z,63.98
2019-03-06T20:37:39.326Z,64.36
2019-03-06T20:43:45.277Z,64.47
2019-03-06T20:49:51.406Z,64.67
2019-03-06T20:55:57.396Z,64.91
2019-03-06T21:02:03.425Z,65.53
2019-03-06T21:08:09.214Z,65.88
2019-03-06T21:14:15.338Z,66.17
2019-03-06T21:20:21.127Z,66.51
2019-03-06T21:26:26.858Z,66.72
2019-03-06T21:32:32.817Z,66.88
2019-03-06T21:38:38.658Z,66.97
2019-03-06T21:44:44.766Z,66.90
2019-03-06T21:50:50.649Z,66.85
2019-03-06T21:56:56.913Z,66.84
2019-03-06T22:03:02.718Z,66.75
2019-03-06T22:09:14.711Z,66.59
2019-03-06T22:15:20.786Z,66.96
2019-03-06T22:21:26.611Z,67.22
2019-03-06T22:27:32.427Z,67.62
2019-03-06T22:33:38.630Z,67.64
2019-03-06T22:39:44.781Z,67.72
2019-03-06T22:45:50.603Z,67.77
2019-03-06T22:51:56.778Z,68.13
2019-03-06T22:58:03.171Z,67.86
2019-03-06T23:04:09.404Z,67.88
2019-03-06T23:10:15.345Z,67.97
2019-03-06T23:16:21.276Z,67.90
2019-03-06T23:22:27.188Z,67.89
2019-03-06T23:28:33.098Z,67.79
2019-03-06T23:34:39.077Z,67.76
2019-03-06T23:40:44.911Z,67.81
2019-03-06T23:46:50.674Z,67.64
2019-03-06T23:53:01.018Z,67.55
2019-03-06T23:59:07.053Z,67.68
